sensor_id;sensor_type;location;lat;lon;timestamp;temperature;humidity
64396;DHT22;50717;53.360;6.290;2023-04-03T00:04:58;2.60;99.90
64396;DHT22;50717;53.360;6.290;2023-04-03T00:12:16;2.20;99.90
64396;DHT22;50717;53.360;6.290;2023-04-03T00:17:08;2.30;99.90
64396;DHT22;50717;53.360;6.290;2023-04-03T00:39:03;2.40;99.90
64396;DHT22;50717;53.360;6.290;2023-04-03T00:56:25;2.20;99.90
64396;DHT22;50717;53.360;6.290;2023-04-03T02:00:14;1.60;99.90
64396;DHT22;50717;53.360;6.290;2023-04-03T02:02:40;1.40;99.90
64396;DHT22;50717;53.360;6.290;2023-04-03T02:44:05;1.00;99.90
64396;DHT22;50717;53.360;6.290;2023-04-03T03:01:10;0.80;99.90
64396;DHT22;50717;53.360;6.290;2023-04-03T05:22:36;-0.40;99.90
64396;DHT22;50717;53.360;6.290;2023-04-03T05:27:28;-0.10;99.90
64396;DHT22;50717;53.360;6.290;2023-04-03T06:11:43;0.60;99.90
64396;DHT22;50717;53.360;6.290;2023-04-03T06:26:22;1.20;99.90
64396;DHT22;50717;53.360;6.290;2023-04-03T06:41:00;1.60;99.90
64396;DHT22;50717;53.360;6.290;2023-04-03T06:50:44;2.00;99.90
64396;DHT22;50717;53.360;6.290;2023-04-03T07:07:53;2.50;99.90
64396;DHT22;50717;53.360;6.290;2023-04-03T07:10:18;2.50;99.90
64396;DHT22;50717;53.360;6.290;2023-04-03T07:12:44;2.60;99.90
64396;DHT22;50717;53.360;6.290;2023-04-03T07:17:38;2.70;99.90
64396;DHT22;50717;53.360;6.290;2023-04-03T07:22:30;2.70;99.90
64396;DHT22;50717;53.360;6.290;2023-04-03T07:24:56;2.90;99.90
64396;DHT22;50717;53.360;6.290;2023-04-03T07:27:22;3.00;99.90
64396;DHT22;50717;53.360;6.290;2023-04-03T07:29:48;2.90;99.90
64396;DHT22;50717;53.360;6.290;2023-04-03T07:37:07;3.20;99.90
64396;DHT22;50717;53.360;6.290;2023-04-03T07:39:34;3.30;99.90
64396;DHT22;50717;53.360;6.290;2023-04-03T07:42:00;3.40;99.90
64396;DHT22;50717;53.360;6.290;2023-04-03T07:44:26;3.30;99.90
64396;DHT22;50717;53.360;6.290;2023-04-03T07:46:52;3.80;99.90
64396;DHT22;50717;53.360;6.290;2023-04-03T07:51:44;3.90;99.90
64396;DHT22;50717;53.360;6.290;2023-04-03T07:56:36;3.90;99.90
64396;DHT22;50717;53.360;6.290;2023-04-03T07:59:02;3.90;99.90
64396;DHT22;50717;53.360;6.290;2023-04-03T08:03:57;4.30;99.90
64396;DHT22;50717;53.360;6.290;2023-04-03T08:06:23;4.40;99.90
64396;DHT22;50717;53.360;6.290;2023-04-03T08:11:15;4.40;99.90
64396;DHT22;50717;53.360;6.290;2023-04-03T08:13:40;4.20;99.90
64396;DHT22;50717;53.360;6.290;2023-04-03T08:16:18;4.80;99.90
64396;DHT22;50717;53.360;6.290;2023-04-03T08:18:45;4.90;99.90
64396;DHT22;50717;53.360;6.290;2023-04-03T08:21:12;4.70;99.90
64396;DHT22;50717;53.360;6.290;2023-04-03T08:28:42;4.90;99.90
64396;DHT22;50717;53.360;6.290;2023-04-03T08:31:11;5.20;99.90
64396;DHT22;50717;53.360;6.290;2023-04-03T08:33:38;5.30;99.90
64396;DHT22;50717;53.360;6.290;2023-04-03T08:36:16;5.50;99.90
64396;DHT22;50717;53.360;6.290;2023-04-03T08:38:41;5.10;99.90
64396;DHT22;50717;53.360;6.290;2023-04-03T08:47:11;5.40;99.90
64396;DHT22;50717;53.360;6.290;2023-04-03T08:49:45;5.90;99.90
64396;DHT22;50717;53.360;6.290;2023-04-03T08:55:16;6.00;99.90
64396;DHT22;50717;53.360;6.290;2023-04-03T08:57:44;5.80;99.90
64396;DHT22;50717;53.360;6.290;2023-04-03T09:02:55;6.00;99.90
64396;DHT22;50717;53.360;6.290;2023-04-03T09:10:42;6.30;99.90
64396;DHT22;50717;53.360;6.290;2023-04-03T09:15:53;6.30;99.90
64396;DHT22;50717;53.360;6.290;2023-04-03T09:18:26;6.50;99.90
64396;DHT22;50717;53.360;6.290;2023-04-03T09:23:43;6.90;99.90
64396;DHT22;50717;53.360;6.290;2023-04-03T09:28:42;6.80;99.90
64396;DHT22;50717;53.360;6.290;2023-04-03T09:31:25;6.90;99.90
64396;DHT22;50717;53.360;6.290;2023-04-03T09:34:10;6.80;99.90
64396;DHT22;50717;53.360;6.290;2023-04-03T09:36:52;6.90;99.90
64396;DHT22;50717;53.360;6.290;2023-04-03T09:39:24;6.80;99.90
64396;DHT22;50717;53.360;6.290;2023-04-03T09:41:58;6.90;99.90
64396;DHT22;50717;53.360;6.290;2023-04-03T09:44:27;7.20;99.90
64396;DHT22;50717;53.360;6.290;2023-04-03T09:46:53;7.10;99.90
64396;DHT22;50717;53.360;6.290;2023-04-03T09:49:19;7.10;99.90
64396;DHT22;50717;53.360;6.290;2023-04-03T09:51:45;7.50;99.90
64396;DHT22;50717;53.360;6.290;2023-04-03T09:54:31;7.70;99.90
64396;DHT22;50717;53.360;6.290;2023-04-03T09:57:04;7.30;99.90
64396;DHT22;50717;53.360;6.290;2023-04-03T09:59:31;7.60;99.90
64396;DHT22;50717;53.360;6.290;2023-04-03T10:04:49;7.90;99.90
64396;DHT22;50717;53.360;6.290;2023-04-03T10:10:00;7.90;99.90
64396;DHT22;50717;53.360;6.290;2023-04-03T10:12:27;7.90;99.90
64396;DHT22;50717;53.360;6.290;2023-04-03T10:49:30;8.60;99.90
64396;DHT22;50717;53.360;6.290;2023-04-03T10:52:15;8.80;99.90
64396;DHT22;50717;53.360;6.290;2023-04-03T10:57:24;9.00;99.90
64396;DHT22;50717;53.360;6.290;2023-04-03T10:59:57;8.90;99.90
64396;DHT22;50717;53.360;6.290;2023-04-03T11:02:25;9.20;99.90
64396;DHT22;50717;53.360;6.290;2023-04-03T11:04:57;9.10;99.90
64396;DHT22;50717;53.360;6.290;2023-04-03T11:07:28;8.90;99.90
64396;DHT22;50717;53.360;6.290;2023-04-03T11:10:36;8.90;99.90
64396;DHT22;50717;53.360;6.290;2023-04-03T11:13:30;9.00;99.90
64396;DHT22;50717;53.360;6.290;2023-04-03T11:15:58;9.00;99.90
64396;DHT22;50717;53.360;6.290;2023-04-03T11:18:35;9.20;99.90
64396;DHT22;50717;53.360;6.290;2023-04-03T11:21:11;8.90;99.90
64396;DHT22;50717;53.360;6.290;2023-04-03T11:23:40;9.20;99.90
64396;DHT22;50717;53.360;6.290;2023-04-03T11:26:12;9.20;99.90
64396;DHT22;50717;53.360;6.290;2023-04-03T11:28:38;9.30;99.90
64396;DHT22;50717;53.360;6.290;2023-04-03T11:33:58;9.00;99.90
64396;DHT22;50717;53.360;6.290;2023-04-03T11:36:33;8.90;99.90
64396;DHT22;50717;53.360;6.290;2023-04-03T11:39:35;9.00;99.90
64396;DHT22;50717;53.360;6.290;2023-04-03T11:41:54;9.40;99.90
64396;DHT22;50717;53.360;6.290;2023-04-03T11:44:36;9.50;99.90
64396;DHT22;50717;53.360;6.290;2023-04-03T11:47:04;9.30;99.90
64396;DHT22;50717;53.360;6.290;2023-04-03T11:50:00;9.40;99.90
64396;DHT22;50717;53.360;6.290;2023-04-03T12:05:55;10.20;99.90
64396;DHT22;50717;53.360;6.290;2023-04-03T12:32:24;10.30;99.90
64396;DHT22;50717;53.360;6.290;2023-04-03T12:38:40;10.20;99.90
64396;DHT22;50717;53.360;6.290;2023-04-03T12:46:23;9.90;99.80
64396;DHT22;50717;53.360;6.290;2023-04-03T12:48:57;10.10;99.90
64396;DHT22;50717;53.360;6.290;2023-04-03T12:54:02;10.00;99.90
64396;DHT22;50717;53.360;6.290;2023-04-03T12:56:32;10.10;99.90
64396;DHT22;50717;53.360;6.290;2023-04-03T12:59:22;10.20;99.90
64396;DHT22;50717;53.360;6.290;2023-04-03T13:04:54;10.20;99.90
64396;DHT22;50717;53.360;6.290;2023-04-03T13:07:28;10.40;99.90
64396;DHT22;50717;53.360;6.290;2023-04-03T13:10:03;10.40;99.90
64396;DHT22;50717;53.360;6.290;2023-04-03T13:12:29;10.40;99.90
64396;DHT22;50717;53.360;6.290;2023-04-03T13:14:59;10.10;99.90
64396;DHT22;50717;53.360;6.290;2023-04-03T13:17:26;10.30;99.90
64396;DHT22;50717;53.360;6.290;2023-04-03T13:19:53;10.60;99.90
64396;DHT22;50717;53.360;6.290;2023-04-03T13:22:28;10.50;99.90
64396;DHT22;50717;53.360;6.290;2023-04-03T13:24:58;10.80;99.90
64396;DHT22;50717;53.360;6.290;2023-04-03T13:27:25;11.00;99.90
64396;DHT22;50717;53.360;6.290;2023-04-03T13:29:53;10.90;99.90
64396;DHT22;50717;53.360;6.290;2023-04-03T13:32:24;10.90;99.90
64396;DHT22;50717;53.360;6.290;2023-04-03T13:34:50;11.20;99.90
64396;DHT22;50717;53.360;6.290;2023-04-03T13:37:33;11.20;99.90
64396;DHT22;50717;53.360;6.290;2023-04-03T13:42:27;11.20;99.90
64396;DHT22;50717;53.360;6.290;2023-04-03T13:45:21;10.90;99.90
64396;DHT22;50717;53.360;6.290;2023-04-03T13:47:49;10.90;99.90
64396;DHT22;50717;53.360;6.290;2023-04-03T13:50:18;10.90;99.90
64396;DHT22;50717;53.360;6.290;2023-04-03T13:52:54;11.10;99.90
64396;DHT22;50717;53.360;6.290;2023-04-03T13:55:24;11.50;99.90
64396;DHT22;50717;53.360;6.290;2023-04-03T14:00:38;11.10;99.90
64396;DHT22;50717;53.360;6.290;2023-04-03T14:03:42;10.90;99.90
64396;DHT22;50717;53.360;6.290;2023-04-03T14:06:13;11.30;99.90
64396;DHT22;50717;53.360;6.290;2023-04-03T14:08:39;11.30;99.90
64396;DHT22;50717;53.360;6.290;2023-04-03T14:11:05;11.30;99.90
64396;DHT22;50717;53.360;6.290;2023-04-03T14:13:32;11.40;99.90
64396;DHT22;50717;53.360;6.290;2023-04-03T14:15:58;11.60;99.90
64396;DHT22;50717;53.360;6.290;2023-04-03T14:18:23;11.50;99.90
64396;DHT22;50717;53.360;6.290;2023-04-03T14:20:49;11.80;99.90
64396;DHT22;50717;53.360;6.290;2023-04-03T14:23:15;12.00;99.90
64396;DHT22;50717;53.360;6.290;2023-04-03T14:25:42;11.70;99.90
64396;DHT22;50717;53.360;6.290;2023-04-03T14:28:34;11.90;99.90
64396;DHT22;50717;53.360;6.290;2023-04-03T14:31:00;12.10;99.90
64396;DHT22;50717;53.360;6.290;2023-04-03T14:33:26;12.10;99.90
64396;DHT22;50717;53.360;6.290;2023-04-03T14:35:53;12.00;99.90
64396;DHT22;50717;53.360;6.290;2023-04-03T14:38:25;12.90;99.90
64396;DHT22;50717;53.360;6.290;2023-04-03T14:40:52;12.40;99.90
64396;DHT22;50717;53.360;6.290;2023-04-03T14:43:18;12.90;99.90
64396;DHT22;50717;53.360;6.290;2023-04-03T14:45:46;12.90;99.90
64396;DHT22;50717;53.360;6.290;2023-04-03T14:48:24;12.90;99.90
64396;DHT22;50717;53.360;6.290;2023-04-03T14:50:52;13.20;98.80
64396;DHT22;50717;53.360;6.290;2023-04-03T14:53:19;13.70;99.90
64396;DHT22;50717;53.360;6.290;2023-04-03T14:55:49;13.50;99.90
64396;DHT22;50717;53.360;6.290;2023-04-03T14:58:20;13.70;99.80
64396;DHT22;50717;53.360;6.290;2023-04-03T15:00:46;14.10;99.50
64396;DHT22;50717;53.360;6.290;2023-04-03T15:03:17;13.90;98.60
64396;DHT22;50717;53.360;6.290;2023-04-03T15:05:45;13.60;97.40
64396;DHT22;50717;53.360;6.290;2023-04-03T15:08:22;14.10;97.90
64396;DHT22;50717;53.360;6.290;2023-04-03T15:10:49;13.70;95.70
64396;DHT22;50717;53.360;6.290;2023-04-03T15:13:15;13.30;97.00
64396;DHT22;50717;53.360;6.290;2023-04-03T15:15:41;13.60;96.90
64396;DHT22;50717;53.360;6.290;2023-04-03T15:18:12;13.60;97.10
64396;DHT22;50717;53.360;6.290;2023-04-03T15:20:38;13.60;97.00
64396;DHT22;50717;53.360;6.290;2023-04-03T15:23:04;14.00;97.20
64396;DHT22;50717;53.360;6.290;2023-04-03T15:25:31;13.80;97.10
64396;DHT22;50717;53.360;6.290;2023-04-03T15:27:58;13.80;96.60
64396;DHT22;50717;53.360;6.290;2023-04-03T15:30:24;13.40;95.80
64396;DHT22;50717;53.360;6.290;2023-04-03T15:32:50;13.50;95.70
64396;DHT22;50717;53.360;6.290;2023-04-03T15:35:16;13.30;96.10
64396;DHT22;50717;53.360;6.290;2023-04-03T15:37:42;13.20;95.50
64396;DHT22;50717;53.360;6.290;2023-04-03T15:40:08;13.20;96.60
64396;DHT22;50717;53.360;6.290;2023-04-03T15:42:34;12.80;96.20
64396;DHT22;50717;53.360;6.290;2023-04-03T15:45:00;13.20;95.90
64396;DHT22;50717;53.360;6.290;2023-04-03T15:47:26;13.20;95.80
64396;DHT22;50717;53.360;6.290;2023-04-03T15:49:53;12.70;95.80
64396;DHT22;50717;53.360;6.290;2023-04-03T15:52:19;12.70;95.60
64396;DHT22;50717;53.360;6.290;2023-04-03T15:54:45;11.00;95.80
64396;DHT22;50717;53.360;6.290;2023-04-03T15:57:11;12.50;96.80
64396;DHT22;50717;53.360;6.290;2023-04-03T15:59:36;12.50;97.80
64396;DHT22;50717;53.360;6.290;2023-04-03T16:02:05;12.60;97.80
64396;DHT22;50717;53.360;6.290;2023-04-03T16:04:32;12.20;97.60
64396;DHT22;50717;53.360;6.290;2023-04-03T16:07:03;11.90;98.40
64396;DHT22;50717;53.360;6.290;2023-04-03T16:09:30;11.70;97.80
64396;DHT22;50717;53.360;6.290;2023-04-03T16:11:57;11.60;99.30
64396;DHT22;50717;53.360;6.290;2023-04-03T16:14:22;11.20;99.10
64396;DHT22;50717;53.360;6.290;2023-04-03T16:16:48;10.80;99.90
64396;DHT22;50717;53.360;6.290;2023-04-03T16:19:14;11.10;99.90
64396;DHT22;50717;53.360;6.290;2023-04-03T16:28:00;10.70;99.90
64396;DHT22;50717;53.360;6.290;2023-04-03T16:30:26;10.80;99.90
64396;DHT22;50717;53.360;6.290;2023-04-03T16:32:52;10.20;99.90
64396;DHT22;50717;53.360;6.290;2023-04-03T16:35:18;10.40;99.90
64396;DHT22;50717;53.360;6.290;2023-04-03T16:37:44;10.40;99.90
64396;DHT22;50717;53.360;6.290;2023-04-03T16:40:10;10.50;99.90
64396;DHT22;50717;53.360;6.290;2023-04-03T16:42:37;9.90;99.90
64396;DHT22;50717;53.360;6.290;2023-04-03T16:45:03;9.90;99.90
64396;DHT22;50717;53.360;6.290;2023-04-03T16:47:29;10.10;99.90
64396;DHT22;50717;53.360;6.290;2023-04-03T16:49:55;10.70;99.90
64396;DHT22;50717;53.360;6.290;2023-04-03T16:52:21;11.10;99.90
64396;DHT22;50717;53.360;6.290;2023-04-03T16:54:46;11.00;99.90
64396;DHT22;50717;53.360;6.290;2023-04-03T16:57:12;10.20;99.90
64396;DHT22;50717;53.360;6.290;2023-04-03T16:59:38;10.00;99.90
64396;DHT22;50717;53.360;6.290;2023-04-03T17:02:03;10.10;99.90
64396;DHT22;50717;53.360;6.290;2023-04-03T17:04:29;10.20;99.90
64396;DHT22;50717;53.360;6.290;2023-04-03T17:06:55;10.10;99.90
64396;DHT22;50717;53.360;6.290;2023-04-03T17:09:21;10.10;99.90
64396;DHT22;50717;53.360;6.290;2023-04-03T17:11:48;9.80;99.90
64396;DHT22;50717;53.360;6.290;2023-04-03T17:14:13;9.70;99.90
64396;DHT22;50717;53.360;6.290;2023-04-03T17:16:39;9.40;99.90
64396;DHT22;50717;53.360;6.290;2023-04-03T17:19:05;9.40;99.90
64396;DHT22;50717;53.360;6.290;2023-04-03T17:21:32;9.20;99.90
64396;DHT22;50717;53.360;6.290;2023-04-03T17:24:04;8.80;99.90
64396;DHT22;50717;53.360;6.290;2023-04-03T17:26:33;8.70;99.90
64396;DHT22;50717;53.360;6.290;2023-04-03T17:28:58;9.30;99.90
64396;DHT22;50717;53.360;6.290;2023-04-03T17:31:24;9.30;99.90
64396;DHT22;50717;53.360;6.290;2023-04-03T17:33:50;9.50;99.90
64396;DHT22;50717;53.360;6.290;2023-04-03T17:36:15;9.50;99.90
64396;DHT22;50717;53.360;6.290;2023-04-03T17:38:41;9.30;99.90
64396;DHT22;50717;53.360;6.290;2023-04-03T17:41:07;9.70;99.90
64396;DHT22;50717;53.360;6.290;2023-04-03T17:43:34;9.40;99.90
64396;DHT22;50717;53.360;6.290;2023-04-03T17:46:06;9.20;99.90
64396;DHT22;50717;53.360;6.290;2023-04-03T17:48:34;9.10;99.90
64396;DHT22;50717;53.360;6.290;2023-04-03T17:51:20;8.60;99.90
64396;DHT22;50717;53.360;6.290;2023-04-03T17:53:46;9.00;99.90
64396;DHT22;50717;53.360;6.290;2023-04-03T17:56:18;8.10;99.90
64396;DHT22;50717;53.360;6.290;2023-04-03T17:58:45;8.60;99.90
64396;DHT22;50717;53.360;6.290;2023-04-03T18:01:12;8.20;99.90
64396;DHT22;50717;53.360;6.290;2023-04-03T18:03:37;7.90;99.90
64396;DHT22;50717;53.360;6.290;2023-04-03T18:06:11;7.90;99.90
64396;DHT22;50717;53.360;6.290;2023-04-03T18:08:41;7.40;99.90
64396;DHT22;50717;53.360;6.290;2023-04-03T18:11:08;7.10;99.90
64396;DHT22;50717;53.360;6.290;2023-04-03T18:13:35;6.90;99.90
64396;DHT22;50717;53.360;6.290;2023-04-03T18:16:04;6.80;99.90
64396;DHT22;50717;53.360;6.290;2023-04-03T18:18:30;6.70;99.90
64396;DHT22;50717;53.360;6.290;2023-04-03T18:20:56;6.80;99.90
64396;DHT22;50717;53.360;6.290;2023-04-03T18:23:22;6.60;99.90
64396;DHT22;50717;53.360;6.290;2023-04-03T18:25:48;6.50;99.90
64396;DHT22;50717;53.360;6.290;2023-04-03T18:28:13;6.40;99.90
64396;DHT22;50717;53.360;6.290;2023-04-03T18:30:40;6.60;99.90
64396;DHT22;50717;53.360;6.290;2023-04-03T18:33:06;6.30;99.90
64396;DHT22;50717;53.360;6.290;2023-04-03T18:35:32;5.80;99.90
64396;DHT22;50717;53.360;6.290;2023-04-03T18:37:57;5.90;99.90
64396;DHT22;50717;53.360;6.290;2023-04-03T18:40:23;6.80;99.90
64396;DHT22;50717;53.360;6.290;2023-04-03T18:42:49;6.70;99.90
64396;DHT22;50717;53.360;6.290;2023-04-03T18:45:16;6.00;99.90
64396;DHT22;50717;53.360;6.290;2023-04-03T18:47:44;6.00;99.90
64396;DHT22;50717;53.360;6.290;2023-04-03T18:50:10;6.30;99.90
64396;DHT22;50717;53.360;6.290;2023-04-03T18:52:36;5.80;99.90
64396;DHT22;50717;53.360;6.290;2023-04-03T18:55:01;6.00;99.90
64396;DHT22;50717;53.360;6.290;2023-04-03T18:57:27;5.60;99.90
64396;DHT22;50717;53.360;6.290;2023-04-03T18:59:54;5.60;99.90
64396;DHT22;50717;53.360;6.290;2023-04-03T19:02:19;5.50;99.90
64396;DHT22;50717;53.360;6.290;2023-04-03T19:04:47;6.20;99.90
64396;DHT22;50717;53.360;6.290;2023-04-03T19:07:13;6.00;99.90
64396;DHT22;50717;53.360;6.290;2023-04-03T19:09:39;5.70;99.90
64396;DHT22;50717;53.360;6.290;2023-04-03T19:12:06;5.30;99.90
64396;DHT22;50717;53.360;6.290;2023-04-03T19:14:32;5.40;99.90
64396;DHT22;50717;53.360;6.290;2023-04-03T19:16:58;5.40;99.90
64396;DHT22;50717;53.360;6.290;2023-04-03T19:19:23;6.80;99.90
64396;DHT22;50717;53.360;6.290;2023-04-03T19:21:49;5.60;99.90
64396;DHT22;50717;53.360;6.290;2023-04-03T19:24:15;5.70;99.90
64396;DHT22;50717;53.360;6.290;2023-04-03T19:26:41;6.50;99.90
64396;DHT22;50717;53.360;6.290;2023-04-03T19:29:07;5.60;99.90
64396;DHT22;50717;53.360;6.290;2023-04-03T19:31:34;5.20;99.90
64396;DHT22;50717;53.360;6.290;2023-04-03T19:34:02;6.30;99.90
64396;DHT22;50717;53.360;6.290;2023-04-03T19:36:29;5.40;99.90
64396;DHT22;50717;53.360;6.290;2023-04-03T19:38:54;5.40;99.90
64396;DHT22;50717;53.360;6.290;2023-04-03T19:41:22;5.30;99.90
64396;DHT22;50717;53.360;6.290;2023-04-03T19:43:51;5.80;99.90
64396;DHT22;50717;53.360;6.290;2023-04-03T19:46:17;5.70;99.90
64396;DHT22;50717;53.360;6.290;2023-04-03T19:48:44;5.30;99.90
64396;DHT22;50717;53.360;6.290;2023-04-03T19:51:12;5.10;99.90
64396;DHT22;50717;53.360;6.290;2023-04-03T19:53:37;5.20;99.90
64396;DHT22;50717;53.360;6.290;2023-04-03T19:56:03;4.80;99.90
64396;DHT22;50717;53.360;6.290;2023-04-03T19:58:29;5.20;99.90
64396;DHT22;50717;53.360;6.290;2023-04-03T20:00:59;4.90;99.90
64396;DHT22;50717;53.360;6.290;2023-04-03T20:03:25;5.20;99.90
64396;DHT22;50717;53.360;6.290;2023-04-03T20:05:52;4.80;99.90
64396;DHT22;50717;53.360;6.290;2023-04-03T20:08:18;5.00;99.90
64396;DHT22;50717;53.360;6.290;2023-04-03T20:10:45;4.60;99.90
64396;DHT22;50717;53.360;6.290;2023-04-03T20:13:11;4.80;99.90
64396;DHT22;50717;53.360;6.290;2023-04-03T20:15:42;5.40;99.90
64396;DHT22;50717;53.360;6.290;2023-04-03T20:18:15;4.80;99.90
64396;DHT22;50717;53.360;6.290;2023-04-03T20:20:45;4.60;99.90
64396;DHT22;50717;53.360;6.290;2023-04-03T20:23:16;4.40;99.90
64396;DHT22;50717;53.360;6.290;2023-04-03T20:25:43;4.40;99.90
64396;DHT22;50717;53.360;6.290;2023-04-03T20:28:10;4.80;99.90
64396;DHT22;50717;53.360;6.290;2023-04-03T20:30:38;4.30;99.90
64396;DHT22;50717;53.360;6.290;2023-04-03T20:33:05;6.40;99.90
64396;DHT22;50717;53.360;6.290;2023-04-03T20:35:31;4.70;99.90
64396;DHT22;50717;53.360;6.290;2023-04-03T20:37:57;4.60;99.90
64396;DHT22;50717;53.360;6.290;2023-04-03T20:40:24;4.40;99.90
64396;DHT22;50717;53.360;6.290;2023-04-03T20:42:50;4.20;99.90
64396;DHT22;50717;53.360;6.290;2023-04-03T20:45:19;4.50;99.90
64396;DHT22;50717;53.360;6.290;2023-04-03T20:47:47;4.50;99.90
64396;DHT22;50717;53.360;6.290;2023-04-03T20:50:13;4.20;99.90
64396;DHT22;50717;53.360;6.290;2023-04-03T20:52:39;4.30;99.90
64396;DHT22;50717;53.360;6.290;2023-04-03T20:55:06;4.20;99.90
64396;DHT22;50717;53.360;6.290;2023-04-03T20:57:34;3.90;99.90
64396;DHT22;50717;53.360;6.290;2023-04-03T21:00:00;4.20;99.90
64396;DHT22;50717;53.360;6.290;2023-04-03T21:02:31;4.10;99.90
64396;DHT22;50717;53.360;6.290;2023-04-03T21:04:58;4.30;99.90
64396;DHT22;50717;53.360;6.290;2023-04-03T21:19:18;4.10;99.90
64396;DHT22;50717;53.360;6.290;2023-04-03T21:21:44;4.10;99.90
64396;DHT22;50717;53.360;6.290;2023-04-03T21:26:39;4.20;99.90
64396;DHT22;50717;53.360;6.290;2023-04-03T21:29:06;4.10;99.90
64396;DHT22;50717;53.360;6.290;2023-04-03T21:31:53;3.90;99.90
64396;DHT22;50717;53.360;6.290;2023-04-03T21:34:20;4.00;99.90
64396;DHT22;50717;53.360;6.290;2023-04-03T21:36:46;4.00;99.90
64396;DHT22;50717;53.360;6.290;2023-04-03T21:39:14;3.90;99.90
64396;DHT22;50717;53.360;6.290;2023-04-03T21:41:41;4.00;99.90
64396;DHT22;50717;53.360;6.290;2023-04-03T21:44:06;3.70;99.90
64396;DHT22;50717;53.360;6.290;2023-04-03T21:46:32;4.10;99.90
64396;DHT22;50717;53.360;6.290;2023-04-03T21:48:58;3.80;99.90
64396;DHT22;50717;53.360;6.290;2023-04-03T21:51:24;3.60;99.90
64396;DHT22;50717;53.360;6.290;2023-04-03T21:53:53;3.80;99.90
64396;DHT22;50717;53.360;6.290;2023-04-03T21:56:20;3.80;99.90
64396;DHT22;50717;53.360;6.290;2023-04-03T21:58:49;4.00;99.90
64396;DHT22;50717;53.360;6.290;2023-04-03T22:01:16;3.70;99.90
64396;DHT22;50717;53.360;6.290;2023-04-03T22:03:43;3.90;99.90
64396;DHT22;50717;53.360;6.290;2023-04-03T22:06:11;3.90;99.90
64396;DHT22;50717;53.360;6.290;2023-04-03T22:08:37;4.00;99.90
64396;DHT22;50717;53.360;6.290;2023-04-03T22:13:30;3.60;99.90
64396;DHT22;50717;53.360;6.290;2023-04-03T22:15:56;3.80;99.90
64396;DHT22;50717;53.360;6.290;2023-04-03T22:18:23;3.80;99.90
64396;DHT22;50717;53.360;6.290;2023-04-03T22:20:50;3.60;99.90
64396;DHT22;50717;53.360;6.290;2023-04-03T22:25:42;3.80;99.90
64396;DHT22;50717;53.360;6.290;2023-04-03T22:28:08;3.70;99.90
64396;DHT22;50717;53.360;6.290;2023-04-03T22:30:34;3.60;99.90
64396;DHT22;50717;53.360;6.290;2023-04-03T22:35:26;3.30;99.90
64396;DHT22;50717;53.360;6.290;2023-04-03T22:37:52;3.70;99.90
64396;DHT22;50717;53.360;6.290;2023-04-03T22:40:18;3.40;99.90
64396;DHT22;50717;53.360;6.290;2023-04-03T22:45:14;3.40;99.90
64396;DHT22;50717;53.360;6.290;2023-04-03T22:47:40;3.40;99.90
64396;DHT22;50717;53.360;6.290;2023-04-03T22:50:06;3.00;99.90
64396;DHT22;50717;53.360;6.290;2023-04-03T22:52:32;3.30;99.90
64396;DHT22;50717;53.360;6.290;2023-04-03T22:54:57;3.20;99.90
64396;DHT22;50717;53.360;6.290;2023-04-03T22:57:23;3.20;99.90
64396;DHT22;50717;53.360;6.290;2023-04-03T22:59:49;3.40;99.90
64396;DHT22;50717;53.360;6.290;2023-04-03T23:02:15;3.20;99.90
64396;DHT22;50717;53.360;6.290;2023-04-03T23:04:40;3.00;99.90
64396;DHT22;50717;53.360;6.290;2023-04-03T23:07:06;3.20;99.90
64396;DHT22;50717;53.360;6.290;2023-04-03T23:09:32;3.20;99.90
64396;DHT22;50717;53.360;6.290;2023-04-03T23:11:58;3.00;99.90
64396;DHT22;50717;53.360;6.290;2023-04-03T23:14:24;2.80;99.90
64396;DHT22;50717;53.360;6.290;2023-04-03T23:16:50;2.90;99.90
64396;DHT22;50717;53.360;6.290;2023-04-03T23:19:15;3.00;99.90
64396;DHT22;50717;53.360;6.290;2023-04-03T23:21:42;3.00;99.90
64396;DHT22;50717;53.360;6.290;2023-04-03T23:24:07;3.10;99.90
64396;DHT22;50717;53.360;6.290;2023-04-03T23:28:59;3.10;99.90
64396;DHT22;50717;53.360;6.290;2023-04-03T23:31:25;2.90;99.90
64396;DHT22;50717;53.360;6.290;2023-04-03T23:33:50;2.80;99.90
64396;DHT22;50717;53.360;6.290;2023-04-03T23:36:16;2.70;99.90
64396;DHT22;50717;53.360;6.290;2023-04-03T23:38:42;2.80;99.90
64396;DHT22;50717;53.360;6.290;2023-04-03T23:41:07;2.70;99.90
64396;DHT22;50717;53.360;6.290;2023-04-03T23:43:33;2.90;99.90
64396;DHT22;50717;53.360;6.290;2023-04-03T23:45:59;3.00;99.90
64396;DHT22;50717;53.360;6.290;2023-04-03T23:48:25;2.40;99.90
64396;DHT22;50717;53.360;6.290;2023-04-03T23:50:51;2.80;99.90
64396;DHT22;50717;53.360;6.290;2023-04-03T23:53:17;2.90;99.90
64396;DHT22;50717;53.360;6.290;2023-04-03T23:55:42;2.60;99.90
